Madison Heights, Michigan
Current Conditions -  °F | °C
As of 7:17 PM on Sunday 23 Nov 2014 (Local Time) from KVLL Reporting Station
Light Rain Light Rain  
Wind Chill: 48°   Ceiling: 9000
Heat Index: 48°   Visibility: 10mi
Dew Point: 45°   Wind: 3mph
Humidity: 87%   Direction: 40°NE
Pressure: 29.59"   Gusts: NA
Location:  42.52°N, 83.11°W
Report Text: KVLL 240017Z AUTO 04003KT 10SM -RA SCT080 OVC090 09/07 A2959 RMK AO2
Loading
Personal Weather Stations






























Interactive Weather Map New forecast layout! Learn more

10-Day Weather Forecast

Advertisements
Track Severe Weather on mobile